Time;durP1;ratioP1;P1;durP2;ratioP2;P2;SDS_P1;SDS_P2;PMS_P1;PMS_P2;Temp;Humidity;BMP_temperature;BMP_pressure;BME280_temperature;BME280_humidity;BME280_pressure;Samples;Min_cycle;Max_cycle;Signal;HPM_P1;HPM_P2
2022/09/09 00:00:24;;;;;;;2.17;1.20;;;14.10;99.90;;;;;;5054249;28;20559;-50
2022/09/09 00:02:58;;;;;;;1.83;1.40;;;14.00;99.90;;;;;;5054027;28;20205;-50
2022/09/09 00:05:30;;;;;;;2.30;1.17;;;14.00;99.90;;;;;;5054174;28;20245;-49
2022/09/09 00:08:03;;;;;;;2.67;1.40;;;14.00;99.90;;;;;;5053617;28;20267;-48
2022/09/09 00:10:33;;;;;;;1.77;1.30;;;14.00;99.90;;;;;;5053642;28;20201;-49
2022/09/09 00:13:07;;;;;;;2.37;1.30;;;14.00;99.90;;;;;;5053820;28;20255;-49
2022/09/09 00:15:41;;;;;;;3.13;1.13;;;14.00;99.90;;;;;;5053781;28;20758;-53
2022/09/09 00:18:22;;;;;;;2.87;1.70;;;14.00;99.90;;;;;;5053739;28;20288;-51
2022/09/09 00:20:57;;;;;;;4.97;1.47;;;14.00;99.90;;;;;;5053931;28;20247;-54
2022/09/09 00:23:26;;;;;;;4.00;1.37;;;14.00;99.90;;;;;;5053635;28;20205;-51
2022/09/09 00:26:04;;;;;;;5.43;1.20;;;14.10;99.90;;;;;;5053507;28;20715;-57
2022/09/09 00:28:34;;;;;;;2.50;1.50;;;14.10;99.90;;;;;;5053512;28;20256;-54
2022/09/09 00:31:08;;;;;;;4.13;1.30;;;14.10;99.90;;;;;;5053802;28;20206;-52
2022/09/09 00:33:35;;;;;;;4.40;1.60;;;14.00;99.90;;;;;;5053787;28;20213;-53
2022/09/09 00:36:03;;;;;;;5.10;1.40;;;14.00;99.90;;;;;;5053227;28;20882;-52
2022/09/09 00:38:35;;;;;;;3.97;1.50;;;14.00;99.90;;;;;;5053400;28;20554;-55
2022/09/09 00:41:09;;;;;;;2.73;1.33;;;14.00;99.90;;;;;;5053316;28;20676;-54
2022/09/09 00:43:38;;;;;;;4.10;1.47;;;13.90;99.90;;;;;;5053463;28;20560;-54
2022/09/09 00:46:24;;;;;;;3.50;1.57;;;13.90;99.90;;;;;;5053070;28;20290;-54
2022/09/09 00:48:59;;;;;;;3.07;1.63;;;13.90;99.90;;;;;;5053158;28;20226;-52
2022/09/09 00:51:34;;;;;;;3.73;1.40;;;13.90;99.90;;;;;;5053275;28;20212;-57
2022/09/09 00:54:24;;;;;;;2.17;1.27;;;13.90;99.90;;;;;;5053076;28;20270;-57
2022/09/09 00:57:04;;;;;;;3.23;1.60;;;13.90;99.90;;;;;;5052925;28;20220;-57
2022/09/09 00:59:44;;;;;;;2.07;1.60;;;13.90;99.90;;;;;;5053196;28;20236;-57
2022/09/09 01:02:18;;;;;;;1.87;1.50;;;13.90;99.90;;;;;;5052937;28;20672;-53
2022/09/09 01:04:45;;;;;;;3.30;2.50;;;13.90;99.90;;;;;;5052904;28;20286;-52
2022/09/09 01:07:17;;;;;;;4.20;2.57;;;13.80;99.90;;;;;;5052492;28;20301;-53
2022/09/09 01:09:53;;;;;;;5.27;2.70;;;13.80;99.90;;;;;;5051672;28;20246;-52
2022/09/09 01:12:29;;;;;;;4.73;2.60;;;13.90;99.90;;;;;;5053148;28;20266;-55
2022/09/09 01:15:03;;;;;;;5.13;2.80;;;13.90;99.90;;;;;;5052675;28;20236;-55
2022/09/09 01:17:33;;;;;;;6.10;3.30;;;13.90;99.90;;;;;;5052748;28;20207;-54
2022/09/09 01:20:06;;;;;;;6.87;3.40;;;13.90;99.90;;;;;;5052575;28;20299;-54
2022/09/09 01:22:41;;;;;;;4.10;3.47;;;13.90;99.90;;;;;;5053202;28;20209;-56
2022/09/09 01:25:40;;;;;;;7.37;3.97;;;13.90;99.90;;;;;;5055558;28;20247;-57
2022/09/09 01:28:11;;;;;;;9.70;4.63;;;13.90;99.90;;;;;;5016316;28;20225;-56
2022/09/09 01:30:41;;;;;;;9.27;4.67;;;13.90;99.90;;;;;;5052705;28;20263;-52
2022/09/09 01:33:13;;;;;;;6.23;4.90;;;13.90;99.90;;;;;;5052934;28;20541;-55
2022/09/09 01:35:48;;;;;;;9.87;5.97;;;13.90;99.90;;;;;;5052558;28;20283;-52
2022/09/09 01:38:15;;;;;;;10.73;6.33;;;14.00;99.90;;;;;;5052308;28;20229;-54
2022/09/09 01:40:42;;;;;;;13.30;7.00;;;14.00;99.90;;;;;;5052302;28;20209;-56
2022/09/09 01:43:11;;;;;;;10.13;7.13;;;14.10;99.90;;;;;;5052395;28;20228;-50
2022/09/09 01:45:40;;;;;;;12.23;8.07;;;14.10;99.90;;;;;;5052021;28;20229;-55
2022/09/09 01:48:06;;;;;;;11.67;8.77;;;14.20;99.90;;;;;;5052020;28;20221;-54
2022/09/09 01:50:33;;;;;;;15.80;9.87;;;14.30;99.90;;;;;;5052344;28;20262;-53
2022/09/09 01:53:02;;;;;;;15.97;10.83;;;14.30;99.90;;;;;;5052025;28;20210;-54
2022/09/09 01:55:32;;;;;;;16.00;10.07;;;14.40;99.90;;;;;;5051957;28;20245;-55
2022/09/09 01:58:19;;;;;;;12.17;8.93;;;14.40;99.90;;;;;;5051629;28;20202;-51
2022/09/09 02:00:54;;;;;;;11.00;8.20;;;14.40;99.90;;;;;;5051899;28;20266;-56
2022/09/09 02:03:25;;;;;;;13.90;7.57;;;14.40;99.90;;;;;;5052138;28;20279;-56
2022/09/09 02:06:01;;;;;;;10.83;6.80;;;14.40;99.90;;;;;;5051892;28;20315;-51
2022/09/09 02:08:38;;;;;;;10.83;6.37;;;14.40;99.90;;;;;;5051927;28;20229;-55
2022/09/09 02:11:09;;;;;;;11.50;5.77;;;14.40;99.90;;;;;;5051941;28;20212;-54
2022/09/09 02:13:39;;;;;;;8.70;5.83;;;14.30;99.90;;;;;;5051418;28;20217;-53
2022/09/09 02:16:09;;;;;;;11.10;5.90;;;14.40;99.90;;;;;;5051655;28;20230;-55
2022/09/09 02:18:41;;;;;;;10.07;5.73;;;14.30;99.90;;;;;;5051796;28;20205;-52
2022/09/09 02:21:11;;;;;;;9.20;5.33;;;14.40;99.90;;;;;;5051588;28;20205;-53
2022/09/09 02:23:40;;;;;;;9.47;5.20;;;14.30;99.90;;;;;;5051831;28;20639;-49
2022/09/09 02:26:09;;;;;;;8.13;5.60;;;14.30;99.90;;;;;;5051682;28;20318;-57
2022/09/09 02:28:38;;;;;;;8.77;5.50;;;14.20;99.90;;;;;;5051665;28;20291;-57
2022/09/09 02:31:06;;;;;;;9.97;5.17;;;14.20;99.90;;;;;;5052243;28;20213;-57
2022/09/09 02:33:37;;;;;;;6.93;5.30;;;14.20;99.90;;;;;;5051843;28;20201;-54
2022/09/09 02:36:06;;;;;;;6.90;5.07;;;14.20;99.90;;;;;;5051626;28;20248;-54
2022/09/09 02:38:39;;;;;;;9.13;4.77;;;14.20;99.90;;;;;;5052386;28;20247;-55
2022/09/09 02:41:06;;;;;;;10.27;5.13;;;14.30;99.90;;;;;;5053338;28;20300;-57
2022/09/09 02:43:34;;;;;;;9.33;5.10;;;14.30;99.90;;;;;;5052035;28;20296;-54
2022/09/09 02:46:23;;;;;;;14.07;4.93;;;14.30;99.90;;;;;;5052196;28;20225;-49
2022/09/09 02:48:59;;;;;;;8.23;4.70;;;14.40;99.90;;;;;;5051315;28;20236;-51
2022/09/09 02:51:32;;;;;;;9.90;4.73;;;14.40;99.90;;;;;;5051491;28;20266;-51
2022/09/09 02:54:09;;;;;;;15.37;5.30;;;14.40;99.90;;;;;;5051280;28;20228;-55
2022/09/09 02:56:42;;;;;;;6.73;4.73;;;14.40;99.90;;;;;;5051365;28;20220;-53
2022/09/09 02:59:09;;;;;;;7.60;4.57;;;14.40;99.90;;;;;;5051539;28;20205;-51
2022/09/09 03:01:39;;;;;;;9.40;4.40;;;14.40;99.90;;;;;;5051498;28;20206;-57
2022/09/09 03:04:06;;;;;;;6.73;4.07;;;14.30;99.90;;;;;;5051530;28;20212;-52
2022/09/09 03:06:33;;;;;;;9.80;4.43;;;14.30;99.90;;;;;;5050824;28;20271;-51
2022/09/09 03:09:02;;;;;;;11.30;4.53;;;14.30;99.90;;;;;;5051253;28;20707;-55
2022/09/09 03:11:29;;;;;;;6.90;3.97;;;14.30;99.90;;;;;;5051563;28;20213;-54
2022/09/09 03:13:56;;;;;;;6.53;4.00;;;14.30;99.90;;;;;;5051282;28;20206;-53
2022/09/09 03:16:23;;;;;;;9.17;4.30;;;14.30;99.90;;;;;;5051013;28;20316;-54
2022/09/09 03:18:52;;;;;;;4.47;3.57;;;14.30;99.90;;;;;;5051159;28;20210;-55
2022/09/09 03:21:18;;;;;;;6.17;3.70;;;14.20;99.90;;;;;;5051293;28;20205;-56
2022/09/09 03:23:45;;;;;;;3.90;3.50;;;14.20;99.90;;;;;;5051372;28;20206;-54
2022/09/09 03:26:14;;;;;;;7.97;3.30;;;14.20;99.90;;;;;;5051019;28;20291;-55
2022/09/09 03:28:41;;;;;;;8.97;4.07;;;14.20;99.90;;;;;;5051134;28;20234;-51
2022/09/09 03:31:10;;;;;;;7.20;3.47;;;14.20;99.90;;;;;;5051065;28;20210;-54
2022/09/09 03:33:36;;;;;;;9.03;3.33;;;14.20;99.90;;;;;;5053525;28;20589;-55
2022/09/09 03:36:05;;;;;;;9.03;3.50;;;14.20;99.90;;;;;;5054450;28;20249;-54
2022/09/09 03:38:33;;;;;;;8.97;3.53;;;14.10;99.90;;;;;;5054310;28;20695;-56
2022/09/09 03:41:01;;;;;;;9.93;3.47;;;14.10;99.90;;;;;;5054580;28;20216;-55
2022/09/09 03:43:28;;;;;;;4.97;3.00;;;14.10;99.90;;;;;;5054599;28;20240;-57
2022/09/09 03:45:56;;;;;;;7.83;3.10;;;14.10;99.90;;;;;;5054048;28;20226;-53
2022/09/09 03:48:23;;;;;;;5.93;3.10;;;14.10;99.90;;;;;;5054575;28;20229;-57
2022/09/09 03:50:52;;;;;;;7.37;3.20;;;14.10;99.90;;;;;;5054475;28;20588;-56
2022/09/09 03:53:22;;;;;;;7.13;3.53;;;14.10;99.90;;;;;;5054263;28;20259;-57
2022/09/09 03:55:52;;;;;;;6.97;3.40;;;14.10;99.90;;;;;;5053500;28;20225;-56
2022/09/09 03:58:19;;;;;;;7.63;4.67;;;14.10;99.90;;;;;;5054098;28;20699;-57
2022/09/09 04:00:54;;;;;;;6.87;3.43;;;14.10;99.90;;;;;;5054526;28;20213;-55
2022/09/09 04:03:22;;;;;;;10.13;3.33;;;14.10;99.90;;;;;;5054288;28;20270;-55
2022/09/09 04:05:49;;;;;;;9.53;3.60;;;14.10;99.90;;;;;;5054167;28;20241;-49
2022/09/09 04:08:16;;;;;;;6.33;3.50;;;14.10;99.90;;;;;;5053850;28;20283;-53
2022/09/09 04:10:46;;;;;;;8.67;3.77;;;14.10;99.90;;;;;;5054080;28;20748;-53
2022/09/09 04:13:15;;;;;;;6.30;3.43;;;14.10;99.90;;;;;;5054270;28;20224;-52
2022/09/09 04:15:43;;;;;;;9.90;3.43;;;14.20;99.90;;;;;;5053691;28;20731;-55
2022/09/09 04:18:09;;;;;;;6.90;3.40;;;14.20;99.90;;;;;;5053694;28;20251;-57
2022/09/09 04:20:36;;;;;;;6.93;2.93;;;14.20;99.90;;;;;;5054656;28;20209;-53
2022/09/09 04:23:03;;;;;;;8.90;3.20;;;14.20;99.90;;;;;;5054149;28;20615;-53
2022/09/09 04:25:30;;;;;;;7.90;3.33;;;14.20;99.90;;;;;;5053649;28;20230;-56
2022/09/09 04:27:58;;;;;;;6.67;3.13;;;14.30;99.90;;;;;;5053532;28;20210;-53
2022/09/09 04:30:27;;;;;;;5.30;3.20;;;14.30;99.90;;;;;;5053834;28;20202;-49
2022/09/09 04:32:53;;;;;;;3.67;2.87;;;14.30;99.90;;;;;;5053523;28;20206;-55
2022/09/09 04:35:20;;;;;;;5.33;3.17;;;14.30;99.90;;;;;;5053526;28;20231;-49
2022/09/09 04:37:47;;;;;;;7.43;3.03;;;14.30;99.90;;;;;;5053213;28;20215;-49
2022/09/09 04:40:14;;;;;;;7.30;3.20;;;14.20;99.90;;;;;;5053770;28;20201;-52
2022/09/09 04:42:43;;;;;;;12.10;3.83;;;14.20;99.90;;;;;;5053328;28;20202;-49
2022/09/09 04:45:13;;;;;;;6.97;2.90;;;14.20;99.90;;;;;;5053150;28;20604;-52
2022/09/09 04:47:39;;;;;;;5.93;3.20;;;14.10;99.90;;;;;;5053053;28;20213;-56
2022/09/09 04:50:07;;;;;;;12.10;3.63;;;14.10;99.90;;;;;;5050473;28;20778;-55
2022/09/09 04:52:35;;;;;;;8.07;3.47;;;14.10;99.90;;;;;;5052202;28;20256;-56
2022/09/09 04:55:01;;;;;;;7.77;3.40;;;14.10;99.90;;;;;;5052982;28;20230;-54
2022/09/09 04:57:28;;;;;;;10.80;3.40;;;14.10;99.90;;;;;;5053275;28;20217;-57
2022/09/09 04:59:55;;;;;;;9.27;3.63;;;14.10;99.90;;;;;;5053316;28;20209;-57
2022/09/09 05:02:23;;;;;;;5.90;3.57;;;14.20;99.90;;;;;;5055640;28;20201;-57
2022/09/09 05:04:50;;;;;;;7.20;3.33;;;14.20;99.90;;;;;;5053798;28;20661;-55
2022/09/09 05:07:16;;;;;;;7.80;3.63;;;14.20;99.90;;;;;;5052517;28;20217;-55
2022/09/09 05:09:44;;;;;;;7.20;3.70;;;14.20;99.90;;;;;;5052686;28;20271;-57
2022/09/09 05:12:11;;;;;;;6.80;3.57;;;14.30;99.90;;;;;;5052536;28;20668;-55
2022/09/09 05:14:37;;;;;;;11.47;3.83;;;14.30;99.90;;;;;;5052732;28;20276;-56
2022/09/09 05:17:04;;;;;;;6.37;3.53;;;14.30;99.90;;;;;;5051942;28;20691;-53
2022/09/09 05:19:32;;;;;;;7.40;3.20;;;14.30;99.90;;;;;;5052281;28;20206;-57
2022/09/09 05:22:00;;;;;;;11.03;3.60;;;14.30;99.90;;;;;;5052476;28;20202;-56
2022/09/09 05:24:27;;;;;;;6.37;3.30;;;14.40;99.90;;;;;;5052470;28;20230;-59
2022/09/09 05:26:54;;;;;;;9.20;3.43;;;14.40;99.90;;;;;;5051774;28;20206;-58
2022/09/09 05:29:21;;;;;;;8.77;3.33;;;14.40;99.90;;;;;;5052198;28;20222;-60
2022/09/09 05:31:47;;;;;;;7.03;3.23;;;14.40;99.90;;;;;;5052017;28;20206;-59
2022/09/09 05:34:14;;;;;;;9.63;3.57;;;14.40;99.90;;;;;;5052095;28;20558;-60
2022/09/09 05:36:42;;;;;;;10.77;3.40;;;14.50;99.90;;;;;;5051743;28;20668;-60
2022/09/09 05:39:09;;;;;;;6.93;3.17;;;14.50;99.90;;;;;;5052189;28;20209;-61
2022/09/09 05:41:35;;;;;;;7.07;2.90;;;14.50;99.90;;;;;;5051709;28;20209;-60
2022/09/09 05:44:03;;;;;;;8.37;3.70;;;14.60;99.90;;;;;;5051768;28;20206;-60
2022/09/09 05:46:30;;;;;;;11.93;3.73;;;14.60;99.90;;;;;;5052129;28;20245;-56
2022/09/09 05:48:58;;;;;;;6.43;2.83;;;14.60;99.90;;;;;;5051520;28;20229;-59
2022/09/09 05:51:27;;;;;;;7.77;3.50;;;14.60;99.90;;;;;;5052056;28;20261;-57
2022/09/09 05:53:58;;;;;;;7.83;3.20;;;14.70;99.90;;;;;;5051881;28;20209;-57
2022/09/09 05:56:27;;;;;;;9.17;3.20;;;14.70;99.90;;;;;;5051483;28;20230;-58
2022/09/09 05:58:54;;;;;;;6.67;3.20;;;14.80;99.90;;;;;;5051710;28;20202;-59
2022/09/09 06:01:23;;;;;;;10.63;3.20;;;14.80;99.90;;;;;;5051808;28;20213;-58
2022/09/09 06:03:51;;;;;;;8.83;4.00;;;14.90;99.90;;;;;;5051240;28;20206;-58
2022/09/09 06:06:21;;;;;;;9.37;3.00;;;14.90;99.90;;;;;;5051563;28;20756;-58
2022/09/09 06:08:50;;;;;;;9.90;3.00;;;14.90;99.90;;;;;;5051699;28;20588;-58
2022/09/09 06:11:20;;;;;;;6.17;2.97;;;14.80;99.90;;;;;;5051177;28;20208;-57
2022/09/09 06:13:47;;;;;;;8.10;2.77;;;14.90;99.90;;;;;;5051470;28;20206;-60
2022/09/09 06:16:16;;;;;;;5.33;2.43;;;14.90;99.90;;;;;;5051247;28;20225;-58
2022/09/09 06:18:43;;;;;;;5.70;2.77;;;15.00;99.90;;;;;;5051807;28;20205;-60
2022/09/09 06:21:15;;;;;;;7.27;3.13;;;15.00;99.90;;;;;;5051324;28;20214;-59
2022/09/09 06:23:44;;;;;;;13.17;2.93;;;15.10;99.90;;;;;;5052892;28;20287;-59
2022/09/09 06:26:13;;;;;;;11.23;3.20;;;15.10;99.90;;;;;;5051283;28;20320;-60
2022/09/09 06:28:42;;;;;;;8.00;3.50;;;15.10;99.90;;;;;;5051243;28;20263;-54
2022/09/09 06:31:11;;;;;;;6.87;2.90;;;15.20;99.90;;;;;;5051251;28;20210;-58
2022/09/09 06:33:40;;;;;;;10.77;3.17;;;15.20;99.90;;;;;;5051325;28;20627;-58
2022/09/09 06:36:11;;;;;;;5.73;2.80;;;15.20;99.90;;;;;;5051090;28;20222;-60
2022/09/09 06:38:38;;;;;;;6.43;2.60;;;15.30;99.90;;;;;;5051098;28;20668;-57
2022/09/09 06:41:05;;;;;;;9.10;2.37;;;15.30;99.90;;;;;;5051388;28;20284;-61
2022/09/09 06:43:32;;;;;;;7.90;2.47;;;15.40;99.90;;;;;;5050892;28;20672;-61
2022/09/09 06:46:02;;;;;;;10.60;2.63;;;15.50;99.90;;;;;;5051289;28;20225;-61
2022/09/09 06:48:29;;;;;;;5.80;2.63;;;15.50;99.90;;;;;;5041370;28;20621;-62
2022/09/09 06:51:03;;;;;;;5.17;2.73;;;15.60;99.90;;;;;;5050834;28;20275;-62
2022/09/09 06:53:29;;;;;;;6.80;2.20;;;15.60;99.90;;;;;;5049638;28;20206;-64
2022/09/09 06:55:56;;;;;;;3.23;2.43;;;15.70;99.90;;;;;;5049984;28;20712;-60
2022/09/09 06:58:23;;;;;;;9.97;2.00;;;15.70;99.90;;;;;;5050362;28;20691;-58
2022/09/09 07:00:50;;;;;;;4.47;2.10;;;15.70;99.90;;;;;;5050714;28;20202;-60
2022/09/09 07:03:18;;;;;;;7.17;2.13;;;15.80;99.90;;;;;;5050911;28;20292;-62
2022/09/09 07:05:54;;;;;;;5.87;2.47;;;15.80;99.90;;;;;;5050173;28;20233;-63
2022/09/09 07:08:20;;;;;;;4.30;1.97;;;15.90;99.90;;;;;;5052950;28;20209;-59
2022/09/09 07:10:47;;;;;;;6.27;2.17;;;15.90;99.90;;;;;;5054305;28;20233;-62
2022/09/09 07:13:15;;;;;;;5.13;1.47;;;16.00;99.90;;;;;;5054576;28;20263;-63
2022/09/09 07:15:42;;;;;;;4.07;1.90;;;16.00;99.90;;;;;;5054002;28;20241;-62
2022/09/09 07:18:10;;;;;;;6.00;1.40;;;16.00;99.90;;;;;;5054289;28;20205;-55
2022/09/09 07:20:38;;;;;;;2.53;1.30;;;16.10;99.90;;;;;;5054310;28;20642;-57
2022/09/09 07:23:04;;;;;;;4.70;1.67;;;16.00;99.90;;;;;;5054353;28;20206;-57
2022/09/09 07:25:31;;;;;;;6.60;1.50;;;15.90;99.90;;;;;;5053970;28;20798;-59
2022/09/09 07:27:58;;;;;;;3.57;1.60;;;16.00;99.90;;;;;;5053898;28;20206;-58
2022/09/09 07:30:24;;;;;;;3.57;1.60;;;16.00;99.90;;;;;;5053150;28;20267;-59
2022/09/09 07:32:52;;;;;;;5.00;1.63;;;16.10;99.90;;;;;;5053785;28;20256;-59
2022/09/09 07:35:20;;;;;;;3.47;1.63;;;16.20;99.90;;;;;;5054270;28;20230;-59
2022/09/09 07:37:48;;;;;;;5.17;1.43;;;16.30;94.90;;;;;;5053562;28;20212;-58
2022/09/09 07:40:15;;;;;;;4.50;1.23;;;16.50;60.10;;;;;;5054122;28;20206;-63
2022/09/09 07:42:41;;;;;;;3.87;1.00;;;16.40;7.20;;;;;;5054286;28;20217;-63
2022/09/09 07:45:08;;;;;;;4.27;1.40;;;16.50;3.60;;;;;;5053725;28;20882;-61
2022/09/09 07:47:35;;;;;;;8.30;1.60;;;16.50;1.90;;;;;;5052098;28;20206;-56
2022/09/09 07:50:02;;;;;;;3.33;1.50;;;16.50;8.60;;;;;;5045648;28;20586;-58
2022/09/09 07:52:29;;;;;;;4.83;1.40;;;16.50;1.00;;;;;;5053983;28;20216;-61
2022/09/09 07:54:57;;;;;;;4.40;1.40;;;16.50;1.00;;;;;;5052883;28;20221;-55
2022/09/09 07:57:23;;;;;;;7.00;1.27;;;16.50;1.00;;;;;;5053137;28;20300;-59
2022/09/09 07:59:51;;;;;;;8.30;1.60;;;16.60;1.00;;;;;;5053061;28;20560;-58
2022/09/09 08:02:18;;;;;;;9.27;1.10;;;16.60;1.00;;;;;;5053332;28;20300;-62
2022/09/09 08:04:46;;;;;;;4.43;1.27;;;16.60;1.00;;;;;;5053541;28;20233;-61
2022/09/09 08:07:13;;;;;;;5.90;1.50;;;16.50;1.00;;;;;;5053012;28;20206;-61
2022/09/09 08:09:39;;;;;;;6.07;1.20;;;16.50;1.00;;;;;;5053196;28;20254;-60
2022/09/09 08:12:08;;;;;;;8.13;1.50;;;16.60;1.00;;;;;;5052975;28;20275;-60
2022/09/09 08:14:35;;;;;;;5.87;1.40;;;16.70;1.00;;;;;;5053072;28;20233;-60
2022/09/09 08:17:02;;;;;;;3.47;1.57;;;16.80;1.00;;;;;;5052571;28;20621;-60
2022/09/09 08:19:29;;;;;;;3.67;1.10;;;16.80;1.00;;;;;;5052877;28;20559;-60
2022/09/09 08:21:56;;;;;;;4.77;1.30;;;16.70;1.00;;;;;;5052864;28;20209;-61
2022/09/09 08:24:23;;;;;;;5.40;1.37;;;16.80;1.00;;;;;;5052962;28;20658;-60
2022/09/09 08:26:50;;;;;;;6.23;1.20;;;17.00;1.00;;;;;;5053100;28;20205;-61
2022/09/09 08:29:19;;;;;;;6.10;1.20;;;17.20;1.00;;;;;;5052580;28;20202;-61
2022/09/09 08:31:47;;;;;;;5.93;1.40;;;17.40;1.00;;;;;;5053012;28;20259;-59
2022/09/09 08:34:15;;;;;;;8.00;1.33;;;17.40;1.00;;;;;;5052606;28;20259;-55
2022/09/09 08:36:43;;;;;;;5.43;1.27;;;17.40;1.00;;;;;;5052716;28;20209;-57
2022/09/09 08:39:11;;;;;;;8.00;1.30;;;17.50;1.00;;;;;;5058296;28;20626;-59
2022/09/09 08:41:58;;;;;;;8.27;1.23;;;17.40;1.00;;;;;;5063501;28;20746;-60
2022/09/09 08:44:35;;;;;;;3.67;1.30;;;17.20;99.90;;;;;;5054704;28;20227;-57
2022/09/09 08:47:09;;;;;;;3.67;1.10;;;17.20;99.90;;;;;;5052389;28;20259;-58
2022/09/09 08:50:02;;;;;;;7.13;1.70;;;17.30;99.90;;;;;;5052527;28;20347;-59
2022/09/09 08:52:31;;;;;;;3.70;1.23;;;17.50;99.90;;;;;;5052579;28;20202;-58
2022/09/09 08:55:12;;;;;;;4.10;1.20;;;17.70;99.90;;;;;;5052626;28;20225;-58
2022/09/09 08:57:39;;;;;;;7.10;1.20;;;17.80;99.90;;;;;;5051827;28;20738;-56
2022/09/09 09:00:10;;;;;;;4.67;1.83;;;17.90;99.90;;;;;;5052490;28;20236;-60
2022/09/09 09:02:45;;;;;;;6.50;1.67;;;17.90;99.90;;;;;;5052274;28;20259;-58
2022/09/09 09:05:21;;;;;;;3.90;1.43;;;17.90;99.90;;;;;;5051952;28;20233;-55
2022/09/09 09:08:04;;;;;;;6.03;1.33;;;18.00;99.90;;;;;;5052425;28;20263;-58
2022/09/09 09:10:42;;;;;;;4.53;1.60;;;18.20;99.90;;;;;;5052155;28;20276;-59
2022/09/09 09:13:14;;;;;;;9.83;1.77;;;18.40;93.70;;;;;;5052209;28;20274;-56
2022/09/09 09:15:42;;;;;;;6.00;2.00;;;18.20;99.90;;;;;;5052256;28;20225;-57
2022/09/09 09:18:13;;;;;;;6.90;2.00;;;18.00;99.90;;;;;;5051973;28;20206;-60
2022/09/09 09:20:48;;;;;;;5.10;1.73;;;17.70;99.90;;;;;;5051984;28;20204;-54
2022/09/09 09:23:23;;;;;;;6.87;2.00;;;17.50;99.90;;;;;;5052072;28;20211;-57
2022/09/09 09:25:51;;;;;;;3.47;1.40;;;17.40;1.00;;;;;;5052136;28;20248;-54
2022/09/09 09:28:22;;;;;;;5.87;1.60;;;17.40;99.90;;;;;;5051585;28;20209;-53
2022/09/09 09:30:53;;;;;;;5.53;1.30;;;17.40;99.90;;;;;;5050709;28;20237;-55
2022/09/09 09:33:25;;;;;;;4.60;1.37;;;17.50;99.90;;;;;;5051939;28;20631;-55
2022/09/09 09:35:53;;;;;;;6.27;1.67;;;17.90;90.00;;;;;;5051363;28;20240;-56
2022/09/09 09:38:22;;;;;;;7.60;1.80;;;18.20;99.90;;;;;;5051996;28;20255;-56
2022/09/09 09:40:51;;;;;;;5.50;1.33;;;18.20;31.10;;;;;;5051454;28;20197;-55
2022/09/09 09:43:24;;;;;;;5.37;1.40;;;18.30;99.90;;;;;;5051792;28;20206;-57
2022/09/09 09:45:52;;;;;;;4.80;1.17;;;18.50;99.90;;;;;;5044397;28;21247;-57
2022/09/09 09:48:19;;;;;;;3.43;1.10;;;18.50;61.40;;;;;;5050575;28;20206;-59
2022/09/09 09:50:51;;;;;;;3.07;1.00;;;18.50;1.00;;;;;;5051633;28;20229;-60
2022/09/09 09:53:23;;;;;;;7.83;1.30;;;18.30;99.90;;;;;;5051097;28;20209;-58
2022/09/09 09:55:55;;;;;;;5.03;1.20;;;18.20;99.90;;;;;;5051336;28;20229;-59
2022/09/09 09:58:21;;;;;;;4.10;1.00;;;18.30;1.00;;;;;;5050906;28;20271;-59
2022/09/09 10:00:50;;;;;;;2.73;1.03;;;18.30;99.90;;;;;;5051271;28;20624;-58
2022/09/09 10:03:25;;;;;;;4.60;1.17;;;18.40;11.80;;;;;;5051368;28;20213;-59
2022/09/09 10:05:52;;;;;;;5.67;1.10;;;18.50;99.90;;;;;;5051458;28;20280;-56
2022/09/09 10:08:20;;;;;;;1.97;1.00;;;18.50;99.90;;;;;;5051557;28;20206;-59
2022/09/09 10:10:58;;;;;;;5.43;1.47;;;18.60;99.90;;;;;;5050640;28;20765;-62
2022/09/09 10:13:32;;;;;;;6.00;1.37;;;18.60;99.90;;;;;;5051062;28;20671;-61
2022/09/09 10:16:12;;;;;;;5.57;1.30;;;18.50;47.60;;;;;;5050963;28;20229;-63
2022/09/09 10:18:54;;;;;;;6.80;1.63;;;18.30;99.90;;;;;;5051637;28;20201;-63
2022/09/09 10:21:33;;;;;;;5.10;1.20;;;18.10;99.90;;;;;;5050479;28;20229;-60
2022/09/09 10:24:18;;;;;;;5.73;1.50;;;18.00;1.00;;;;;;5051072;28;20209;-61
2022/09/09 10:26:49;;;;;;;4.20;1.03;;;18.10;99.90;;;;;;5050990;28;20206;-59
2022/09/09 10:29:33;;;;;;;5.63;1.30;;;18.40;1.00;;;;;;5050963;28;20620;-60
2022/09/09 10:32:10;;;;;;;5.50;0.77;;;18.80;99.90;;;;;;5050562;28;20255;-61
2022/09/09 10:34:57;;;;;;;4.77;0.83;;;19.00;1.00;;;;;;5051320;28;20264;-64
2022/09/09 10:37:42;;;;;;;3.57;1.10;;;19.00;1.00;;;;;;5050508;28;20205;-64
2022/09/09 10:40:21;;;;;;;4.53;0.70;;;19.10;1.00;;;;;;5050242;28;20208;-65
2022/09/09 10:42:48;;;;;;;3.57;1.30;;;19.10;1.00;;;;;;5054142;28;20197;-65
2022/09/09 10:45:19;;;;;;;5.63;1.00;;;18.90;99.90;;;;;;5055177;28;20238;-64
2022/09/09 10:48:17;;;;;;;5.20;1.20;;;18.80;99.90;;;;;;5054823;28;20240;-65
2022/09/09 10:50:55;;;;;;;4.47;1.03;;;18.90;99.90;;;;;;5054347;28;20708;-65
2022/09/09 10:53:34;;;;;;;4.47;1.20;;;19.00;99.90;;;;;;5054886;28;20213;-64
2022/09/09 10:56:06;;;;;;;4.03;1.13;;;19.00;99.90;;;;;;5055184;28;20229;-64
2022/09/09 10:58:40;;;;;;;2.50;0.80;;;19.20;99.90;;;;;;5054993;28;20213;-64
2022/09/09 11:01:15;;;;;;;2.87;0.90;;;19.30;99.90;;;;;;5054290;28;20229;-64
2022/09/09 11:03:44;;;;;;;2.20;0.67;;;19.40;99.90;;;;;;5054682;28;20738;-64
2022/09/09 11:06:16;;;;;;;4.50;1.10;;;19.40;99.90;;;;;;5054164;28;20320;-64
2022/09/09 11:08:43;;;;;;;3.93;0.93;;;19.30;99.90;;;;;;5054720;28;20209;-64
2022/09/09 11:11:16;;;;;;;2.93;0.90;;;19.10;99.90;;;;;;5053976;28;20228;-63
2022/09/09 11:13:48;;;;;;;3.90;0.70;;;19.00;99.90;;;;;;5054310;28;20823;-62
2022/09/09 11:16:23;;;;;;;2.27;0.70;;;18.90;99.90;;;;;;5054165;28;20316;-69
2022/09/09 11:18:50;;;;;;;4.67;1.00;;;19.00;99.90;;;;;;5054614;28;20211;-67
2022/09/09 11:21:46;;;;;;;3.67;1.20;;;19.00;99.90;;;;;;5054081;28;20738;-66
2022/09/09 11:24:17;;;;;;;3.37;1.03;;;19.00;99.90;;;;;;5044978;28;20275;-63
2022/09/09 11:26:47;;;;;;;3.10;0.80;;;19.10;99.90;;;;;;5054184;28;20630;-63
2022/09/09 11:29:38;;;;;;;2.27;0.90;;;19.20;99.90;;;;;;5053928;28;20224;-63
2022/09/09 11:32:21;;;;;;;3.13;0.87;;;19.30;99.90;;;;;;5053935;28;20287;-64
2022/09/09 11:34:56;;;;;;;2.33;0.87;;;19.40;99.90;;;;;;5053602;28;20238;-64
2022/09/09 11:37:56;;;;;;;4.20;1.27;;;19.30;99.90;;;;;;5045595;28;20302;-60
2022/09/09 11:40:25;;;;;;;5.57;1.37;;;19.20;99.90;;;;;;5053906;28;20275;-60
2022/09/09 11:43:05;;;;;;;6.17;1.07;;;19.10;99.90;;;;;;5053719;28;20206;-61
2022/09/09 11:45:35;;;;;;;2.97;0.80;;;19.00;99.90;;;;;;5053506;28;20233;-60
2022/09/09 11:48:03;;;;;;;2.30;0.90;;;19.00;99.90;;;;;;5053988;28;20213;-60
2022/09/09 11:50:35;;;;;;;5.77;1.13;;;19.00;99.90;;;;;;5033450;28;20202;-60
2022/09/09 11:53:22;;;;;;;11.07;2.37;;;19.00;99.90;;;;;;5032903;28;20612;-59
2022/09/09 11:56:00;;;;;;;2.77;0.90;;;19.00;99.90;;;;;;5033446;28;20226;-58
2022/09/09 11:58:28;;;;;;;5.07;1.40;;;18.90;99.90;;;;;;5033887;28;20206;-59
2022/09/09 12:00:55;;;;;;;2.80;1.03;;;18.80;99.90;;;;;;5047796;28;20205;-57
2022/09/09 12:03:42;;;;;;;4.63;1.33;;;18.70;99.90;;;;;;5053795;28;20213;-57
2022/09/09 12:06:16;;;;;;;2.93;1.30;;;18.80;99.90;;;;;;5053249;28;20330;-57
2022/09/09 12:08:49;;;;;;;4.47;1.10;;;18.80;99.90;;;;;;5053551;28;20216;-56
2022/09/09 12:11:26;;;;;;;2.40;0.90;;;18.80;99.90;;;;;;5053641;28;20214;-61
2022/09/09 12:13:56;;;;;;;5.00;0.90;;;18.70;99.90;;;;;;5053179;28;20688;-62
2022/09/09 12:16:32;;;;;;;5.53;1.20;;;18.60;99.90;;;;;;5059086;28;20229;-61
2022/09/09 12:19:06;;;;;;;1.87;0.90;;;18.40;99.90;;;;;;5061961;28;20237;-58
2022/09/09 12:21:40;;;;;;;4.83;0.83;;;18.40;1.00;;;;;;5059066;28;20738;-59
2022/09/09 12:24:11;;;;;;;3.10;1.10;;;18.40;1.00;;;;;;5052812;28;20237;-58
2022/09/09 12:26:42;;;;;;;1.23;0.60;;;18.40;1.00;;;;;;5053054;28;20206;-59
2022/09/09 12:29:25;;;;;;;2.73;0.93;;;18.70;1.00;;;;;;5052989;28;20216;-58
2022/09/09 12:32:00;;;;;;;4.23;1.10;;;19.00;1.00;;;;;;5052572;28;20236;-60
2022/09/09 12:34:37;;;;;;;4.20;1.03;;;19.10;1.00;;;;;;5052262;28;20294;-63
2022/09/09 12:37:09;;;;;;;2.50;1.03;;;19.00;99.90;;;;;;5051815;28;20206;-61
2022/09/09 12:39:42;;;;;;;2.07;0.80;;;18.70;99.90;;;;;;5046487;28;20746;-59
2022/09/09 12:42:17;;;;;;;2.23;0.63;;;18.70;1.00;;;;;;5052428;28;20201;-61
2022/09/09 12:44:52;;;;;;;2.03;0.60;;;18.60;1.00;;;;;;5052858;28;20279;-60
2022/09/09 12:47:22;;;;;;;4.40;0.90;;;18.50;1.00;;;;;;5052217;28;20205;-57
2022/09/09 12:49:50;;;;;;;2.20;0.63;;;18.50;1.00;;;;;;5052357;28;20218;-60
2022/09/09 12:52:24;;;;;;;1.70;0.80;;;18.40;1.00;;;;;;5051917;28;20222;-61
2022/09/09 12:54:53;;;;;;;1.83;0.70;;;18.30;7.00;;;;;;5049741;28;20228;-59
2022/09/09 12:57:23;;;;;;;5.60;1.00;;;18.20;1.00;;;;;;5051903;28;20683;-64
2022/09/09 12:59:49;;;;;;;2.27;1.03;;;17.90;99.90;;;;;;5052109;28;20227;-63
2022/09/09 13:02:21;;;;;;;3.50;0.90;;;18.10;1.00;;;;;;5051716;28;20207;-60
2022/09/09 13:04:50;;;;;;;5.20;1.20;;;18.40;99.90;;;;;;5052409;28;20226;-58
2022/09/09 13:07:17;;;;;;;4.97;0.73;;;18.50;99.90;;;;;;5052239;28;20236;-59